createdAt,value
2022-08-05T00:01:27.740Z,100897.69
2022-08-05T00:03:55.074Z,100893.19
2022-08-05T00:06:29.171Z,100897.25
2022-08-05T00:09:00.935Z,100912.22
2022-08-05T00:11:34.846Z,100898.97
2022-08-05T00:14:17.054Z,100767.22
2022-08-05T00:16:52.773Z,100904.56
2022-08-05T00:19:24.888Z,100904.56
2022-08-05T00:22:00.206Z,100899.97
2022-08-05T00:24:31.033Z,100923.59
2022-08-05T00:26:59.355Z,100899.56
2022-08-05T00:29:37.618Z,100652.38
2022-08-05T00:32:20.314Z,100890.38
2022-08-05T00:35:03.424Z,100895.31
2022-08-05T00:37:51.003Z,100880.84
2022-08-05T00:40:27.506Z,100883.75
2022-08-05T00:42:58.472Z,100774.72
2022-08-05T00:45:39.115Z,100865.66
2022-08-05T00:48:27.532Z,100872.91
2022-08-05T00:51:00.830Z,100876.56
2022-08-05T00:54:00.970Z,100755.34
2022-08-05T00:56:23.104Z,100728.69
2022-08-05T00:58:53.636Z,100879.94
2022-08-05T01:01:24.719Z,100855.63
2022-08-05T01:04:13.797Z,100901.00
2022-08-05T01:06:40.921Z,100901.13
2022-08-05T01:09:10.278Z,100896.63
2022-08-05T01:11:39.826Z,100903.06
2022-08-05T01:14:17.747Z,100903.56
2022-08-05T01:17:00.157Z,100874.88
2022-08-05T01:20:01.181Z,100887.25
2022-08-05T01:22:28.094Z,100881.50
2022-08-05T01:25:10.047Z,100872.22
2022-08-05T01:28:08.827Z,100872.00
2022-08-05T01:30:40.118Z,100857.06
2022-08-05T01:33:22.039Z,100884.56
2022-08-05T01:35:55.567Z,100848.78
2022-08-05T01:38:29.180Z,100897.59
2022-08-05T01:41:01.667Z,100857.44
2022-08-05T01:43:29.801Z,100872.06
2022-08-05T01:45:57.764Z,100869.28
2022-08-05T01:48:29.590Z,100886.63
2022-08-05T01:50:58.456Z,100900.13
2022-08-05T01:53:54.982Z,100916.31
2022-08-05T01:58:12.356Z,100959.81
2022-08-05T01:59:26.033Z,100960.53
2022-08-05T02:02:17.787Z,100814.03
2022-08-05T02:04:59.074Z,100964.56
2022-08-05T02:07:30.457Z,100961.91
2022-08-05T02:09:58.367Z,100959.25
2022-08-05T02:12:51.753Z,100967.13
2022-08-05T02:15:53.090Z,100956.84
2022-08-05T02:18:36.026Z,100972.78
2022-08-05T02:21:14.971Z,100960.22
2022-08-05T02:23:55.244Z,100960.94
2022-08-05T02:26:55.324Z,100972.56
2022-08-05T02:29:58.101Z,100978.47
2022-08-05T02:32:19.765Z,100997.69
2022-08-05T02:34:55.846Z,100866.13
2022-08-05T02:37:26.785Z,101007.59
2022-08-05T02:40:03.309Z,100993.56
2022-08-05T02:42:35.981Z,100983.56
2022-08-05T02:45:07.170Z,101044.53
2022-08-05T02:48:06.505Z,101045.38
2022-08-05T02:50:29.264Z,100188.19
2022-08-05T02:53:11.529Z,100977.28
2022-08-05T02:58:26.885Z,100779.22
2022-08-05T03:04:43.885Z,100570.03
2022-08-05T03:07:59.123Z,100734.00
2022-08-05T03:10:37.451Z,100850.00
2022-08-05T03:18:12.687Z,100681.19
2022-08-05T03:24:47.169Z,100448.81
2022-08-05T03:27:18.070Z,100335.31
2022-08-05T03:30:08.777Z,100351.19
2022-08-05T03:32:41.580Z,100815.97
2022-08-05T03:35:13.459Z,100287.47
2022-08-05T03:37:41.119Z,100880.75
2022-08-05T03:40:13.241Z,100929.59
2022-08-05T03:42:52.408Z,100929.59
2022-08-05T03:45:21.788Z,100890.88
2022-08-05T03:47:49.662Z,100930.69
2022-08-05T03:50:18.668Z,100857.56
2022-08-05T03:55:51.842Z,100866.72
2022-08-05T03:56:10.475Z,100783.78
2022-08-05T03:58:41.282Z,100825.22
2022-08-05T04:01:11.181Z,100881.91
2022-08-05T04:04:10.099Z,100815.94
2022-08-05T04:06:33.926Z,100893.25
2022-08-05T04:09:01.800Z,100890.25
2022-08-05T04:11:47.310Z,100748.94
2022-08-05T04:14:17.875Z,100846.53
2022-08-05T04:16:44.880Z,100830.53
2022-08-05T04:19:12.995Z,100698.91
2022-08-05T04:22:09.956Z,100529.38
2022-08-05T04:24:27.740Z,100627.72
2022-08-05T04:26:54.562Z,100838.69
2022-08-05T04:29:24.708Z,100836.81
2022-08-05T04:31:53.627Z,100886.50
2022-08-05T04:34:33.004Z,100754.94
2022-08-05T04:37:01.023Z,100780.81
2022-08-05T04:39:29.927Z,100868.94
2022-08-05T04:41:56.383Z,100732.66
2022-08-05T04:44:30.133Z,100745.09
2022-08-05T04:46:59.935Z,100848.66
2022-08-05T04:50:01.022Z,100847.88
2022-08-05T04:52:24.307Z,100883.22
2022-08-05T04:54:54.250Z,100905.06
2022-08-05T04:57:24.259Z,100822.69
2022-08-05T04:59:56.171Z,100803.50
2022-08-05T05:02:36.407Z,100892.50
2022-08-05T05:05:16.886Z,100831.13
2022-08-05T05:07:56.194Z,100774.31
2022-08-05T05:10:28.917Z,100886.97
2022-08-05T05:12:56.258Z,100668.81
2022-08-05T05:16:02.352Z,100686.75
2022-08-05T05:18:27.934Z,100656.53
2022-08-05T05:20:58.494Z,100809.13
2022-08-05T05:23:25.234Z,100758.13
2022-08-05T05:25:51.759Z,100828.66
2022-08-05T05:28:19.122Z,100882.50
2022-08-05T05:30:49.745Z,100805.41
2022-08-05T05:33:17.543Z,100783.56
2022-08-05T05:35:48.113Z,100773.31
2022-08-05T05:38:26.928Z,100780.19
2022-08-05T05:40:57.421Z,100715.50
2022-08-05T05:43:57.396Z,100884.66
2022-08-05T05:46:17.221Z,100828.28
2022-08-05T05:48:45.864Z,100878.88
2022-08-05T05:51:18.763Z,100900.28
2022-08-05T05:53:58.343Z,100875.75
2022-08-05T05:56:32.806Z,100907.34
2022-08-05T05:59:06.358Z,100829.25
2022-08-05T06:01:37.688Z,100898.03
2022-08-05T06:04:07.302Z,100896.94
2022-08-05T06:06:36.612Z,100753.53
2022-08-05T06:09:05.645Z,100879.31
2022-08-05T06:11:34.962Z,100900.53
2022-08-05T06:14:06.032Z,100899.34
2022-08-05T06:16:36.832Z,100905.22
2022-08-05T06:19:05.841Z,100911.78
2022-08-05T06:21:36.867Z,100913.59
2022-08-05T06:24:11.714Z,100919.19
2022-08-05T06:26:39.765Z,100886.09
2022-08-05T06:29:25.423Z,100931.91
2022-08-05T06:32:21.388Z,100940.97
2022-08-05T06:34:53.500Z,100937.59
2022-08-05T06:37:55.896Z,100957.31
2022-08-05T06:40:07.843Z,100940.41
2022-08-05T06:42:34.386Z,100935.94
2022-08-05T06:45:06.457Z,100912.69
2022-08-05T06:48:36.901Z,100940.28
2022-08-05T06:50:27.284Z,100876.75
2022-08-05T06:53:03.579Z,100901.81
2022-08-05T06:55:37.718Z,100929.66
2022-08-05T06:58:20.326Z,100945.59
2022-08-05T07:00:52.288Z,100907.53
2022-08-05T07:03:19.314Z,100887.03
2022-08-05T07:05:48.705Z,100897.41
2022-08-05T07:08:19.437Z,100947.81
2022-08-05T07:10:52.315Z,100961.72
2022-08-05T07:13:58.488Z,100973.41
2022-08-05T07:18:00.996Z,100979.00
2022-08-05T07:22:17.064Z,100957.13
2022-08-05T07:24:43.941Z,100950.22
2022-08-05T07:27:19.358Z,100945.16
2022-08-05T07:30:23.887Z,100983.88
2022-08-05T07:32:38.406Z,100922.41
2022-08-05T07:35:55.969Z,101001.59
2022-08-05T07:38:05.015Z,100923.84
2022-08-05T07:40:38.963Z,101003.91
2022-08-05T07:43:20.387Z,101026.19
2022-08-05T07:45:57.067Z,101018.88
2022-08-05T07:49:02.503Z,100955.94
2022-08-05T07:51:23.300Z,100998.59
2022-08-05T07:53:57.567Z,100980.72
2022-08-05T07:57:00.412Z,101016.47
2022-08-05T07:59:11.366Z,101039.38
2022-08-05T08:01:41.690Z,101002.91
2022-08-05T08:04:22.960Z,101048.53
2022-08-05T08:07:03.958Z,101028.91
2022-08-05T08:09:32.042Z,101056.59
2022-08-05T08:12:01.892Z,100976.63
2022-08-05T08:14:32.853Z,101060.84
2022-08-05T08:16:59.669Z,101062.38
2022-08-05T08:20:10.186Z,101068.66
2022-08-05T08:22:15.890Z,101025.44
2022-08-05T08:24:51.950Z,101040.66
2022-08-05T08:27:18.943Z,101071.47
2022-08-05T08:30:06.087Z,101072.41
2022-08-05T08:32:36.372Z,101076.72
2022-08-05T08:35:13.726Z,101081.28
2022-08-05T08:37:40.464Z,101090.38
2022-08-05T08:40:12.575Z,101097.69
2022-08-05T08:42:46.737Z,101043.00
2022-08-05T08:45:26.738Z,101062.50
2022-08-05T08:48:12.591Z,101025.16
2022-08-05T08:51:03.960Z,101065.34
2022-08-05T08:53:37.229Z,101119.16
2022-08-05T08:56:06.293Z,101050.22
2022-08-05T08:58:43.111Z,101120.81
2022-08-05T09:01:16.455Z,101082.94
2022-08-05T09:03:47.470Z,101133.00
2022-08-05T09:06:18.661Z,101122.44
2022-08-05T09:08:53.377Z,101109.56
2022-08-05T09:11:53.370Z,101155.84
2022-08-05T09:14:54.856Z,101087.19
2022-08-05T09:16:55.868Z,101151.91
2022-08-05T09:19:27.715Z,101154.00
2022-08-05T09:22:22.226Z,101117.00
2022-08-05T09:24:46.929Z,101147.00
2022-08-05T09:28:05.094Z,101143.69
2022-08-05T09:30:23.358Z,101146.00
2022-08-05T09:32:51.722Z,101153.94
2022-08-05T09:35:26.722Z,101084.63
2022-08-05T09:38:16.594Z,101155.34
2022-08-05T09:40:51.964Z,101134.44
2022-08-05T09:43:40.461Z,101155.97
2022-08-05T09:46:30.261Z,101169.19
2022-08-05T09:49:07.283Z,101178.06
2022-08-05T09:51:49.943Z,101153.06
2022-08-05T09:54:21.381Z,101138.53
2022-08-05T09:56:57.592Z,101147.38
2022-08-05T09:59:28.228Z,101176.78
2022-08-05T10:01:57.682Z,101178.97
2022-08-05T10:04:35.903Z,101111.06
2022-08-05T10:07:19.579Z,101179.50
2022-08-05T10:10:15.244Z,101187.66
2022-08-05T10:12:49.674Z,101197.94
2022-08-05T10:15:20.255Z,101195.69
2022-08-05T10:18:19.787Z,101200.00
2022-08-05T10:20:49.065Z,101199.81
2022-08-05T10:23:34.253Z,101185.72
2022-08-05T10:26:14.540Z,101212.06
2022-08-05T10:28:44.865Z,101226.56
2022-08-05T10:32:52.970Z,100634.22
2022-08-05T10:34:04.179Z,101171.94
2022-08-05T10:36:35.993Z,101229.63
2022-08-05T10:39:10.394Z,101228.50
2022-08-05T10:42:02.032Z,101226.41
2022-08-05T10:44:31.176Z,101238.66
2022-08-05T10:46:57.985Z,101188.13
2022-08-05T10:49:26.951Z,101236.47
2022-08-05T10:52:00.229Z,101232.28
2022-08-05T10:55:04.415Z,101238.50
2022-08-05T10:57:33.668Z,101248.34
2022-08-05T11:00:29.876Z,101248.06
2022-08-05T11:03:23.193Z,101247.25
2022-08-05T11:06:08.411Z,101235.41
2022-08-05T11:08:38.112Z,101264.22
2022-08-05T11:11:44.638Z,101273.91
2022-08-05T11:15:01.053Z,101287.66
2022-08-05T11:17:57.083Z,101279.88
2022-08-05T11:20:32.989Z,101284.63
2022-08-05T11:23:08.860Z,101282.41
2022-08-05T11:26:05.849Z,101254.03
2022-08-05T11:28:25.410Z,101273.50
2022-08-05T11:30:58.484Z,101281.25
2022-08-05T11:33:43.946Z,101195.59
2022-08-05T11:36:34.213Z,101287.03
2022-08-05T11:39:07.543Z,101292.19
2022-08-05T11:42:01.430Z,101239.34
2022-08-05T11:44:52.872Z,101287.91
2022-08-05T11:47:48.510Z,101126.41
2022-08-05T11:54:02.473Z,101295.03
2022-08-05T11:57:08.497Z,101291.53
2022-08-05T11:59:50.774Z,101253.97
2022-08-05T12:02:24.306Z,101195.00
2022-08-05T12:04:59.868Z,101161.56
2022-08-05T12:08:08.931Z,101250.59
2022-08-05T12:10:18.275Z,101280.47
2022-08-05T12:12:59.929Z,101273.66
2022-08-05T12:15:38.129Z,101195.03
2022-08-05T12:18:10.967Z,101253.00
2022-08-05T12:20:39.411Z,101260.25
2022-08-05T12:23:13.808Z,101299.94
2022-08-05T12:25:57.298Z,101303.53
2022-08-05T12:28:39.268Z,101253.69
2022-08-05T12:31:06.318Z,101299.31
2022-08-05T12:33:36.367Z,101305.44
2022-08-05T12:36:09.199Z,101329.53
2022-08-05T12:38:39.481Z,101323.00
2022-08-05T12:41:14.124Z,101340.09
2022-08-05T12:43:51.570Z,101336.00
2022-08-05T12:46:29.216Z,101301.00
2022-08-05T12:49:25.622Z,101325.94
2022-08-05T12:52:23.809Z,101331.03
2022-08-05T12:54:55.010Z,101338.59
2022-08-05T12:57:23.423Z,101319.97
2022-08-05T13:01:56.754Z,101181.69
2022-08-05T13:02:50.999Z,101255.88
2022-08-05T13:05:23.828Z,101338.22
2022-08-05T13:08:00.264Z,101336.91
2022-08-05T13:10:31.013Z,101328.41
2022-08-05T13:12:58.474Z,101320.28
2022-08-05T13:15:35.932Z,101343.50
2022-08-05T13:18:20.165Z,101330.19
2022-08-05T13:20:51.187Z,101348.81
2022-08-05T13:23:22.562Z,101353.22
2022-08-05T13:25:58.853Z,101359.59
2022-08-05T13:28:27.588Z,101359.91
2022-08-05T13:30:54.286Z,101241.69
2022-08-05T13:34:21.145Z,101382.97
2022-08-05T13:36:09.186Z,101388.03
2022-08-05T13:38:38.428Z,101410.50
2022-08-05T13:41:12.340Z,101414.97
2022-08-05T13:43:45.235Z,101438.69
2022-08-05T13:46:44.339Z,101355.38
2022-08-05T13:49:10.182Z,101317.81
2022-08-05T13:51:41.551Z,101456.09
2022-08-05T13:54:15.159Z,101352.88
2022-08-05T13:56:45.597Z,101350.69
2022-08-05T13:59:23.998Z,101473.50
2022-08-05T14:01:59.590Z,101441.19
2022-08-05T14:04:49.769Z,101428.38
2022-08-05T14:07:25.544Z,101326.28
2022-08-05T14:10:28.960Z,101439.50
2022-08-05T14:12:57.706Z,101436.69
2022-08-05T14:16:09.286Z,101421.13
2022-08-05T14:18:14.767Z,101446.28
2022-08-05T14:20:48.777Z,101453.72
2022-08-05T14:23:24.542Z,101461.75
2022-08-05T14:25:54.511Z,101417.03
2022-08-05T14:28:26.880Z,101469.09
2022-08-05T14:30:54.699Z,101444.16
2022-08-05T14:33:23.085Z,101313.16
2022-08-05T14:35:51.789Z,101473.56
2022-08-05T14:38:32.384Z,101423.78
2022-08-05T14:41:05.974Z,101411.97
2022-08-05T14:43:57.732Z,101468.97
2022-08-05T14:46:23.369Z,101471.94
2022-08-05T14:48:55.540Z,101467.84
2022-08-05T14:51:22.172Z,101471.47
2022-08-05T14:54:26.009Z,101397.44
2022-08-05T14:56:37.967Z,101471.22
2022-08-05T14:59:11.427Z,101465.97
2022-08-05T15:01:48.486Z,101467.44
2022-08-05T15:04:17.093Z,101470.78
2022-08-05T15:06:49.319Z,101452.19
2022-08-05T15:09:51.919Z,101465.81
2022-08-05T15:12:09.120Z,101445.81
2022-08-05T15:14:48.407Z,101339.81
2022-08-05T15:17:45.867Z,101465.13
2022-08-05T15:20:06.065Z,101469.34
2022-08-05T15:22:33.218Z,101404.84
2022-08-05T15:25:00.264Z,101461.91
2022-08-05T15:27:38.387Z,101435.16
2022-08-05T15:30:11.031Z,101426.59
2022-08-05T15:32:49.944Z,101433.75
2022-08-05T15:35:16.456Z,101463.31
2022-08-05T15:38:09.209Z,101465.28
2022-08-05T15:41:01.899Z,101470.66
2022-08-05T15:43:19.913Z,101462.06
2022-08-05T15:45:47.575Z,101449.50
2022-08-05T15:48:15.115Z,101469.66
2022-08-05T15:50:43.674Z,101414.31
2022-08-05T15:53:14.482Z,101451.19
2022-08-05T15:56:04.285Z,101480.94
2022-08-05T15:58:29.254Z,101492.00
2022-08-05T16:01:18.374Z,101494.25
2022-08-05T16:03:50.283Z,101478.78
2022-08-05T16:06:20.159Z,101486.13
2022-08-05T16:08:47.750Z,101451.31
2022-08-05T16:11:17.093Z,101480.19
2022-08-05T16:13:47.032Z,101333.38
2022-08-05T16:16:15.548Z,101501.63
2022-08-05T16:18:52.747Z,101456.38
2022-08-05T16:21:20.705Z,101500.78
2022-08-05T16:24:40.743Z,101400.53
2022-08-05T16:27:03.916Z,101483.25
2022-08-05T16:29:47.248Z,101515.06
2022-08-05T16:32:17.386Z,101424.91
2022-08-05T16:34:50.904Z,101534.97
2022-08-05T16:38:16.394Z,101533.94
2022-08-05T16:40:13.433Z,101542.91
2022-08-05T16:42:51.992Z,101501.19
2022-08-05T16:46:07.794Z,101490.28
2022-08-05T16:48:05.254Z,101561.09
2022-08-05T16:50:31.927Z,101524.13
2022-08-05T16:53:12.503Z,101563.94
2022-08-05T16:55:48.636Z,101520.13
2022-08-05T16:58:15.394Z,101567.22
2022-08-05T17:00:49.801Z,101576.91
2022-08-05T17:03:20.122Z,101596.16
2022-08-05T17:08:36.088Z,101581.34
2022-08-05T17:11:12.751Z,101596.50
2022-08-05T17:13:47.482Z,101289.31
2022-08-05T17:16:33.801Z,101588.47
2022-08-05T17:19:01.970Z,101465.16
2022-08-05T17:21:35.405Z,101596.69
2022-08-05T17:24:19.757Z,101555.38
2022-08-05T17:26:52.522Z,101527.25
2022-08-05T17:29:22.319Z,101516.69
2022-08-05T17:31:59.411Z,101609.59
2022-08-05T17:34:29.756Z,101544.16
2022-08-05T17:36:59.311Z,101634.03
2022-08-05T17:39:34.230Z,101610.66
2022-08-05T17:42:17.616Z,101479.47
2022-08-05T17:44:51.393Z,101480.44
2022-08-05T17:47:21.759Z,101466.75
2022-08-05T17:50:00.372Z,101462.94
2022-08-05T17:52:53.206Z,101616.06
2022-08-05T17:55:34.354Z,101490.16
2022-08-05T17:58:13.071Z,101654.41
2022-08-05T18:00:45.236Z,101552.19
2022-08-05T18:03:39.156Z,101666.72
2022-08-05T18:06:05.894Z,101642.69
2022-08-05T18:08:37.071Z,101670.97
2022-08-05T18:11:07.333Z,101679.19
2022-08-05T18:13:36.825Z,101616.97
2022-08-05T18:16:13.356Z,101642.25
2022-08-05T18:18:48.607Z,101690.75
2022-08-05T18:21:20.100Z,101485.69
2022-08-05T18:23:49.277Z,101714.97
2022-08-05T18:26:21.473Z,101719.91
2022-08-05T18:28:54.672Z,101728.38
2022-08-05T18:31:25.886Z,101734.91
2022-08-05T18:34:01.012Z,101744.94
2022-08-05T18:36:38.669Z,101577.97
2022-08-05T18:39:22.479Z,101677.81
2022-08-05T18:42:06.310Z,101752.28
2022-08-05T18:44:49.384Z,101751.03
2022-08-05T18:47:22.779Z,101755.31
2022-08-05T18:50:12.027Z,101680.81
2022-08-05T18:52:50.852Z,101697.97
2022-08-05T18:55:18.690Z,101772.53
2022-08-05T18:57:52.896Z,101778.84
2022-08-05T19:00:27.262Z,101757.88
2022-08-05T19:02:56.495Z,101790.69
2022-08-05T19:06:13.096Z,101789.00
2022-08-05T19:08:15.357Z,101704.34
2022-08-05T19:10:48.866Z,101801.56
2022-08-05T19:13:17.065Z,101667.50
2022-08-05T19:15:58.765Z,101671.81
2022-08-05T19:18:27.148Z,101808.94
2022-08-05T19:20:54.527Z,101779.56
2022-08-05T19:24:06.210Z,101627.59
2022-08-05T19:26:09.570Z,101649.84
2022-08-05T19:28:43.362Z,101830.47
2022-08-05T19:31:13.401Z,101752.50
2022-08-05T19:33:48.687Z,101840.97
2022-08-05T19:36:25.793Z,101652.69
2022-08-05T19:38:55.117Z,101678.00
2022-08-05T19:41:58.250Z,101728.81
2022-08-05T19:44:14.939Z,101857.97
2022-08-05T19:46:43.748Z,101628.59
2022-08-05T19:49:12.552Z,101863.41
2022-08-05T19:52:09.305Z,101798.91
2022-08-05T19:54:41.447Z,101621.84
2022-08-05T19:57:10.118Z,101730.88
2022-08-05T19:59:54.686Z,101862.47
2022-08-05T20:02:31.248Z,101820.91
2022-08-05T20:04:59.638Z,101745.81
2022-08-05T20:07:47.386Z,101820.81
2022-08-05T20:10:16.257Z,101909.47
2022-08-05T20:12:47.578Z,101881.50
2022-08-05T20:15:23.189Z,101938.78
2022-08-05T20:18:10.671Z,101775.94
2022-08-05T20:20:55.366Z,101790.16
2022-08-05T20:23:40.306Z,101775.34
2022-08-05T20:26:15.390Z,101931.22
2022-08-05T20:28:49.398Z,101960.28
2022-08-05T20:31:21.777Z,101973.81
2022-08-05T20:33:50.678Z,101643.97
2022-08-05T20:36:24.989Z,101764.00
2022-08-05T20:38:58.091Z,101976.38
2022-08-05T20:41:44.211Z,101741.63
2022-08-05T20:44:29.424Z,101968.38
2022-08-05T20:47:02.165Z,101995.03
2022-08-05T20:49:33.193Z,101829.38
2022-08-05T20:52:07.394Z,101937.19
2022-08-05T20:54:43.066Z,101975.72
2022-08-05T20:57:42.313Z,101986.56
2022-08-05T21:00:41.029Z,101922.47
2022-08-05T21:03:06.979Z,101938.19
2022-08-05T21:05:53.653Z,101900.03
2022-08-05T21:08:26.860Z,101690.69
2022-08-05T21:12:09.147Z,101780.84
2022-08-05T21:14:55.342Z,102009.44
2022-08-05T21:17:25.195Z,102016.88
2022-08-05T21:20:32.657Z,102009.16
2022-08-05T21:23:00.513Z,101998.47
2022-08-05T21:28:18.505Z,101947.31
2022-08-05T21:30:51.304Z,101894.22
2022-08-05T21:33:53.022Z,102030.06
2022-08-05T21:36:29.759Z,101916.44
2022-08-05T21:38:57.178Z,102026.19
2022-08-05T21:41:26.022Z,102033.41
2022-08-05T21:44:04.939Z,102030.13
2022-08-05T21:46:58.098Z,102056.81
2022-08-05T21:49:48.114Z,102037.53
2022-08-05T21:52:22.259Z,102029.66
2022-08-05T21:55:06.147Z,101886.25
2022-08-05T21:57:54.066Z,101574.44
2022-08-05T22:00:23.805Z,102019.66
2022-08-05T22:03:02.473Z,102048.38
2022-08-05T22:05:49.148Z,101763.69
2022-08-05T22:09:56.988Z,101872.28
2022-08-05T22:11:16.197Z,102056.78
2022-08-05T22:14:05.862Z,102063.25
2022-08-05T22:16:51.931Z,102063.69
2022-08-05T22:20:00.390Z,101984.97
2022-08-05T22:22:12.342Z,102071.91
2022-08-05T22:25:02.423Z,102063.34
2022-08-05T22:28:09.619Z,102088.25
2022-08-05T22:30:56.845Z,102116.84
2022-08-05T22:34:03.320Z,102069.59
2022-08-05T22:36:24.300Z,101766.09
2022-08-05T22:39:04.185Z,102067.53
2022-08-05T22:42:09.898Z,102076.53
2022-08-05T22:44:48.457Z,102106.69
2022-08-05T22:47:29.365Z,102080.56
2022-08-05T22:50:21.750Z,102090.34
2022-08-05T22:52:48.880Z,102089.66
2022-08-05T22:55:19.150Z,101940.75
2022-08-05T22:57:48.890Z,101979.56
2022-08-05T23:00:18.285Z,102094.53
2022-08-05T23:02:48.320Z,102090.28
2022-08-05T23:05:29.112Z,102102.88
2022-08-05T23:08:08.429Z,102119.81
2022-08-05T23:10:41.365Z,102077.75
2022-08-05T23:13:08.185Z,101852.72
2022-08-05T23:15:50.302Z,101917.25
2022-08-05T23:18:17.218Z,101944.91
2022-08-05T23:20:52.334Z,102009.53
2022-08-05T23:23:19.384Z,102116.00
2022-08-05T23:25:51.905Z,102123.09
2022-08-05T23:28:28.699Z,102133.66
2022-08-05T23:30:56.577Z,102113.69
2022-08-05T23:34:04.281Z,101607.00
2022-08-05T23:36:40.093Z,101970.44
2022-08-05T23:39:17.630Z,102110.06
2022-08-05T23:41:59.028Z,102144.63
2022-08-05T23:44:31.143Z,102149.06
2022-08-05T23:47:00.597Z,102158.94
2022-08-05T23:49:33.797Z,102160.94
2022-08-05T23:52:21.782Z,102155.88
2022-08-05T23:54:57.578Z,102157.75
2022-08-05T23:57:28.113Z,102176.34
